Decoded Metar for KGEZ (SHELBYVILLE in IN, USA) (IATA:GEZ) | Meteo·Mobile Aviation Weather
aviador You're here:

KGEZ Decoded Metar

SHELBYVILLE in IN, USA
Report Time2018-12-11 08:53:00
UTC Time2018-12-11 09:15:16
Flight Rules mvfr MVFR
Wind190° at 03 kt
W.Decomp.*RWY 19: 3.0 kt HW 0.2 kt RCW
RWY 27: 0.7 kt HW 2.9 kt LCW
W.Rank190° ranks 2
Current wind is below 190° avg. (8.8)
Visibility6437 m
Phenomena:Mist
Clouds:N/A
Expected CloudBase > 800 ft AGL from Temp-Dew spread
CeilingNone
Temp-8°C (ISA -21)
Dew Point-10°C (86% RH)
AAT-12.1°C
QNH1023 hPa
Density Alt-2,156 ft
Elevation804 ft
Report Wrong Elevation
Raw Report
KGEZ 110853Z AUTO 19003KT 4SM BR CLR M08/M10 A3021 RMK AO2 SLP240
I1000 I3000 T10831100 58005=

Extra information for KGEZ:More info

Metar Taf Metar & Taf Last 4 Metars F.Rules Stats Wind Profile Meteogram Temp Stats Airport Information Weather charts Add Link Nearby VenuesMetar ALERT Operation Metar Decoded Social comments

AIRNAV info for KGEZ